createdAt,value
2023-12-14T00:02:29.711Z,100.00
2023-12-14T00:05:32.444Z,100.00
2023-12-14T00:08:35.166Z,100.00
2023-12-14T00:11:41.325Z,100.00
2023-12-14T00:14:44.057Z,100.00
2023-12-14T00:17:46.743Z,100.00
2023-12-14T00:20:49.546Z,100.00
2023-12-14T00:23:52.240Z,100.00
2023-12-14T00:26:54.910Z,100.00
2023-12-14T00:29:57.554Z,100.00
2023-12-14T00:33:00.251Z,100.00
2023-12-14T00:36:02.983Z,100.00
2023-12-14T00:39:05.700Z,100.00
2023-12-14T00:42:08.411Z,100.00
2023-12-14T00:45:11.566Z,100.00
2023-12-14T00:48:14.392Z,100.00
2023-12-14T00:51:17.300Z,100.00
2023-12-14T00:54:20.071Z,100.00
2023-12-14T00:57:22.900Z,100.00
2023-12-14T01:00:25.902Z,100.00
2023-12-14T01:03:28.748Z,100.00
2023-12-14T01:06:31.815Z,100.00
2023-12-14T01:09:34.750Z,100.00
2023-12-14T01:12:38.268Z,100.00
2023-12-14T01:15:41.113Z,100.00
2023-12-14T01:18:43.857Z,100.00
2023-12-14T01:21:46.687Z,100.00
2023-12-14T01:24:49.375Z,100.00
2023-12-14T01:27:52.074Z,100.00
2023-12-14T01:30:54.784Z,100.00
2023-12-14T01:33:57.779Z,100.00
2023-12-14T01:37:00.554Z,100.00
2023-12-14T01:40:03.479Z,100.00
2023-12-14T01:43:12.289Z,100.00
2023-12-14T01:46:16.545Z,100.00
2023-12-14T01:49:19.450Z,100.00
2023-12-14T01:52:22.192Z,100.00
2023-12-14T01:55:24.998Z,100.00
2023-12-14T01:58:27.964Z,100.00
2023-12-14T02:01:43.382Z,100.00
2023-12-14T02:04:46.606Z,100.00
2023-12-14T02:07:49.817Z,100.00
2023-12-14T02:10:52.542Z,100.00
2023-12-14T02:13:55.345Z,100.00
2023-12-14T02:16:58.174Z,100.00
2023-12-14T02:20:01.931Z,100.00
2023-12-14T02:23:04.832Z,100.00
2023-12-14T02:26:07.522Z,100.00
2023-12-14T02:29:10.268Z,100.00
2023-12-14T02:32:13.050Z,100.00
2023-12-14T02:35:15.825Z,100.00
2023-12-14T02:38:18.581Z,100.00
2023-12-14T02:41:21.351Z,100.00
2023-12-14T02:44:24.009Z,100.00
2023-12-14T02:47:27.026Z,100.00
2023-12-14T02:50:29.711Z,100.00
2023-12-14T02:53:32.529Z,100.00
2023-12-14T02:56:35.155Z,100.00
2023-12-14T02:59:37.865Z,100.00
2023-12-14T03:02:40.596Z,100.00
2023-12-14T03:05:43.310Z,100.00
2023-12-14T03:08:46.016Z,100.00
2023-12-14T03:11:49.554Z,100.00
2023-12-14T03:14:52.333Z,100.00
2023-12-14T03:17:55.023Z,100.00
2023-12-14T03:20:57.671Z,100.00
2023-12-14T03:24:00.351Z,100.00
2023-12-14T03:27:04.018Z,100.00
2023-12-14T03:30:09.436Z,100.00
2023-12-14T03:33:12.423Z,100.00
2023-12-14T03:36:15.170Z,100.00
2023-12-14T03:39:17.923Z,100.00
2023-12-14T03:42:20.697Z,100.00
2023-12-14T03:45:23.498Z,100.00
2023-12-14T03:48:26.240Z,100.00
2023-12-14T03:51:29.817Z,100.00
2023-12-14T03:54:32.531Z,100.00
2023-12-14T03:57:35.179Z,100.00
2023-12-14T04:00:37.874Z,100.00
2023-12-14T04:03:40.499Z,100.00
2023-12-14T04:06:43.597Z,100.00
2023-12-14T04:09:47.039Z,100.00
2023-12-14T04:12:49.807Z,100.00
2023-12-14T04:15:52.454Z,100.00
2023-12-14T04:18:55.282Z,100.00
2023-12-14T04:21:58.091Z,100.00
2023-12-14T04:25:00.792Z,100.00
2023-12-14T04:28:03.719Z,100.00
2023-12-14T04:31:07.278Z,100.00
2023-12-14T04:34:13.387Z,100.00
2023-12-14T04:37:16.038Z,100.00
2023-12-14T04:40:18.894Z,100.00
2023-12-14T04:43:21.656Z,100.00
2023-12-14T04:46:24.359Z,100.00
2023-12-14T04:49:27.004Z,100.00
2023-12-14T04:52:29.889Z,100.00
2023-12-14T04:55:32.659Z,100.00
2023-12-14T04:58:35.687Z,100.00
2023-12-14T05:01:38.478Z,100.00
2023-12-14T05:04:41.294Z,100.00
2023-12-14T05:07:44.063Z,100.00
2023-12-14T05:10:46.794Z,100.00
2023-12-14T05:13:49.515Z,100.00
2023-12-14T05:16:52.765Z,100.00
2023-12-14T05:19:55.535Z,100.00
2023-12-14T05:22:58.247Z,100.00
2023-12-14T05:26:01.080Z,100.00
2023-12-14T05:29:03.800Z,100.00
2023-12-14T05:32:06.776Z,100.00
2023-12-14T05:35:11.123Z,100.00
2023-12-14T05:38:14.250Z,100.00
2023-12-14T05:41:17.351Z,100.00
2023-12-14T05:44:20.020Z,100.00
2023-12-14T05:47:22.751Z,100.00
2023-12-14T05:50:25.404Z,100.00
2023-12-14T05:53:28.610Z,100.00
2023-12-14T05:56:31.388Z,100.00
2023-12-14T05:59:34.358Z,100.00
2023-12-14T06:02:38.879Z,100.00
2023-12-14T06:05:42.209Z,100.00
2023-12-14T06:08:45.789Z,100.00
2023-12-14T06:11:49.189Z,100.00
2023-12-14T06:14:52.011Z,100.00
2023-12-14T06:17:54.786Z,100.00
2023-12-14T06:20:58.000Z,100.00
2023-12-14T06:24:00.962Z,100.00
2023-12-14T06:27:03.910Z,100.00
2023-12-14T06:30:07.240Z,100.00
2023-12-14T06:33:10.296Z,100.00
2023-12-14T06:36:13.556Z,100.00
2023-12-14T06:39:20.612Z,100.00
2023-12-14T06:42:23.694Z,100.00
2023-12-14T06:45:26.516Z,100.00
2023-12-14T06:48:29.543Z,100.00
2023-12-14T06:51:32.433Z,100.00
2023-12-14T06:54:35.225Z,100.00
2023-12-14T06:57:37.916Z,100.00
2023-12-14T07:00:40.839Z,100.00
2023-12-14T07:03:45.836Z,100.00
2023-12-14T07:06:55.133Z,100.00
2023-12-14T07:09:57.916Z,100.00
2023-12-14T07:13:00.858Z,100.00
2023-12-14T07:16:09.574Z,100.00
2023-12-14T07:19:13.067Z,100.00
2023-12-14T07:22:15.778Z,100.00
2023-12-14T07:25:18.646Z,100.00
2023-12-14T07:28:21.482Z,100.00
2023-12-14T07:31:24.357Z,100.00
2023-12-14T07:34:29.485Z,100.00
2023-12-14T07:37:32.271Z,100.00
2023-12-14T07:40:35.050Z,100.00
2023-12-14T07:43:37.817Z,100.00
2023-12-14T07:46:43.786Z,100.00
2023-12-14T07:49:49.656Z,100.00
2023-12-14T07:52:52.671Z,100.00
2023-12-14T07:55:55.449Z,100.00
2023-12-14T07:58:58.239Z,100.00
2023-12-14T08:02:01.126Z,100.00
2023-12-14T08:05:04.452Z,100.00
2023-12-14T08:08:07.392Z,100.00
2023-12-14T08:11:10.163Z,100.00
2023-12-14T08:14:13.175Z,100.00
2023-12-14T08:17:16.129Z,100.00
2023-12-14T08:20:19.027Z,100.00
2023-12-14T08:23:21.865Z,100.00
2023-12-14T08:26:24.873Z,100.00
2023-12-14T08:29:28.144Z,100.00
2023-12-14T08:32:30.875Z,100.00
2023-12-14T08:35:33.797Z,100.00
2023-12-14T08:38:36.466Z,100.00
2023-12-14T08:41:39.272Z,100.00
2023-12-14T08:44:42.136Z,100.00
2023-12-14T08:47:45.056Z,100.00
2023-12-14T08:50:47.896Z,100.00
2023-12-14T08:53:50.598Z,100.00
2023-12-14T08:56:54.478Z,100.00
2023-12-14T08:59:57.268Z,100.00
2023-12-14T09:03:00.271Z,100.00
2023-12-14T09:06:06.668Z,100.00
2023-12-14T09:09:09.659Z,100.00
2023-12-14T09:12:13.572Z,100.00
2023-12-14T09:15:17.039Z,100.00
2023-12-14T09:18:19.997Z,100.00
2023-12-14T09:21:30.283Z,100.00
2023-12-14T09:24:36.811Z,100.00
2023-12-14T09:27:40.181Z,100.00
2023-12-14T09:30:43.744Z,100.00
2023-12-14T09:33:46.616Z,100.00
2023-12-14T09:36:49.454Z,100.00
2023-12-14T09:39:52.424Z,100.00
2023-12-14T09:42:56.782Z,100.00
2023-12-14T09:46:00.477Z,100.00
2023-12-14T09:49:05.279Z,100.00
2023-12-14T09:52:08.189Z,100.00
2023-12-14T09:55:10.867Z,100.00
2023-12-14T09:58:14.305Z,100.00
2023-12-14T10:01:28.089Z,100.00
2023-12-14T10:04:36.975Z,100.00
2023-12-14T10:07:46.886Z,100.00
2023-12-14T10:10:54.551Z,100.00
2023-12-14T10:13:57.944Z,100.00
2023-12-14T10:17:25.993Z,100.00
2023-12-14T10:20:29.261Z,100.00
2023-12-14T10:23:32.430Z,100.00
2023-12-14T10:26:35.564Z,100.00
2023-12-14T10:29:40.714Z,100.00
2023-12-14T10:32:43.998Z,100.00
2023-12-14T10:35:48.672Z,100.00
2023-12-14T10:38:55.560Z,100.00
2023-12-14T10:42:07.921Z,96.67
2023-12-14T10:45:23.138Z,89.93
2023-12-14T10:48:30.820Z,93.01
2023-12-14T10:51:36.298Z,98.61
2023-12-14T10:54:40.843Z,99.71
2023-12-14T10:57:44.970Z,100.00
2023-12-14T11:01:04.965Z,100.00
2023-12-14T11:04:14.471Z,100.00
2023-12-14T11:07:18.024Z,100.00
2023-12-14T11:10:29.237Z,100.00
2023-12-14T11:13:34.407Z,100.00
2023-12-14T11:16:38.939Z,100.00
2023-12-14T11:19:42.245Z,100.00
2023-12-14T11:22:46.264Z,100.00
2023-12-14T11:25:56.807Z,100.00
2023-12-14T11:29:03.226Z,91.46
2023-12-14T11:32:09.653Z,74.59
2023-12-14T11:35:14.059Z,72.74
2023-12-14T11:38:17.248Z,66.79
2023-12-14T11:41:21.499Z,59.31
2023-12-14T11:44:26.817Z,56.95
2023-12-14T11:47:30.223Z,58.21
2023-12-14T11:50:36.556Z,61.47
2023-12-14T11:53:43.820Z,65.41
2023-12-14T11:56:51.619Z,66.52
2023-12-14T11:59:54.898Z,66.43
2023-12-14T12:03:23.638Z,66.98
2023-12-14T12:06:32.027Z,71.09
2023-12-14T12:09:44.449Z,72.75
2023-12-14T12:12:47.480Z,80.38
2023-12-14T12:15:50.966Z,79.32
2023-12-14T12:18:54.409Z,77.60
2023-12-14T12:21:57.595Z,70.91
2023-12-14T12:25:08.814Z,69.53
2023-12-14T12:28:18.288Z,65.95
2023-12-14T12:31:21.341Z,72.14
2023-12-14T12:34:24.716Z,74.19
2023-12-14T12:37:27.901Z,71.69
2023-12-14T12:40:34.762Z,71.81
2023-12-14T12:43:37.797Z,77.26
2023-12-14T12:49:45.265Z,82.33
2023-12-14T12:52:50.623Z,83.05
2023-12-14T12:55:54.134Z,85.21
2023-12-14T12:58:57.605Z,84.56
2023-12-14T13:02:00.964Z,85.70
2023-12-14T13:05:05.961Z,81.81
2023-12-14T13:08:09.361Z,81.27
2023-12-14T13:11:12.864Z,83.70
2023-12-14T13:14:16.175Z,78.89
2023-12-14T13:17:19.703Z,81.51
2023-12-14T13:20:23.183Z,83.09
2023-12-14T13:23:26.491Z,88.34
2023-12-14T13:26:30.152Z,94.16
2023-12-14T13:29:35.773Z,97.37
2023-12-14T13:32:38.805Z,99.64
2023-12-14T13:35:41.936Z,100.00
2023-12-14T13:38:45.601Z,100.00
2023-12-14T13:41:50.772Z,100.00
2023-12-14T13:44:54.023Z,100.00
2023-12-14T13:47:56.774Z,100.00
2023-12-14T13:50:59.898Z,100.00
2023-12-14T13:54:03.192Z,100.00
2023-12-14T13:57:06.046Z,100.00
2023-12-14T14:00:10.496Z,100.00
2023-12-14T14:03:14.895Z,100.00
2023-12-14T14:06:18.240Z,100.00
2023-12-14T14:09:22.427Z,100.00
2023-12-14T14:12:25.579Z,100.00
2023-12-14T14:15:29.303Z,100.00
2023-12-14T14:18:32.823Z,100.00
2023-12-14T14:21:35.943Z,100.00
2023-12-14T14:24:38.783Z,100.00
2023-12-14T14:27:42.213Z,100.00
2023-12-14T14:30:44.953Z,100.00
2023-12-14T14:33:49.704Z,100.00
2023-12-14T14:36:52.566Z,100.00
2023-12-14T14:39:55.373Z,100.00
2023-12-14T14:42:58.185Z,100.00
2023-12-14T14:46:01.541Z,100.00
2023-12-14T14:49:04.340Z,100.00
2023-12-14T14:52:08.207Z,100.00
2023-12-14T14:55:11.001Z,100.00
2023-12-14T14:58:14.397Z,100.00
2023-12-14T15:01:17.135Z,100.00
2023-12-14T15:04:20.160Z,100.00
2023-12-14T15:07:23.620Z,100.00
2023-12-14T15:10:26.624Z,100.00
2023-12-14T15:13:30.691Z,100.00
2023-12-14T15:16:33.733Z,100.00
2023-12-14T15:19:36.499Z,100.00
2023-12-14T15:22:39.604Z,100.00
2023-12-14T15:25:42.614Z,100.00
2023-12-14T15:28:45.627Z,100.00
2023-12-14T15:31:48.565Z,100.00
2023-12-14T15:34:51.366Z,100.00
2023-12-14T15:37:54.079Z,100.00
2023-12-14T15:40:56.843Z,100.00
2023-12-14T15:43:59.768Z,100.00
2023-12-14T15:47:02.609Z,100.00
2023-12-14T15:50:06.154Z,100.00
2023-12-14T15:53:12.185Z,100.00
2023-12-14T15:56:15.985Z,100.00
2023-12-14T15:59:18.864Z,100.00
2023-12-14T16:02:22.126Z,100.00
2023-12-14T16:05:25.188Z,100.00
2023-12-14T16:08:28.146Z,100.00
2023-12-14T16:11:31.105Z,100.00
2023-12-14T16:14:33.908Z,100.00
2023-12-14T16:17:36.839Z,100.00
2023-12-14T16:20:48.724Z,100.00
2023-12-14T16:23:51.608Z,100.00
2023-12-14T16:26:58.792Z,100.00
2023-12-14T16:30:02.281Z,100.00
2023-12-14T16:33:05.464Z,100.00
2023-12-14T16:36:13.266Z,100.00
2023-12-14T16:39:16.117Z,100.00
2023-12-14T16:42:18.903Z,100.00
2023-12-14T16:45:21.674Z,100.00
2023-12-14T16:51:42.092Z,100.00
2023-12-14T16:54:46.397Z,100.00
2023-12-14T16:57:49.186Z,100.00
2023-12-14T17:00:54.826Z,100.00
2023-12-14T17:03:58.234Z,100.00
2023-12-14T17:07:00.993Z,100.00
2023-12-14T17:10:03.958Z,100.00
2023-12-14T17:13:06.761Z,100.00
2023-12-14T17:16:14.163Z,100.00
2023-12-14T17:19:17.206Z,100.00
2023-12-14T17:22:20.023Z,100.00
2023-12-14T17:25:22.810Z,100.00
2023-12-14T17:28:25.747Z,100.00
2023-12-14T17:31:28.591Z,100.00
2023-12-14T17:34:31.442Z,100.00
2023-12-14T17:37:34.491Z,100.00
2023-12-14T17:40:37.492Z,100.00
2023-12-14T17:43:40.714Z,100.00
2023-12-14T17:46:44.049Z,100.00
2023-12-14T17:49:46.792Z,100.00
2023-12-14T17:52:49.594Z,100.00
2023-12-14T17:55:52.355Z,100.00
2023-12-14T17:58:55.106Z,100.00
2023-12-14T18:01:58.868Z,100.00
2023-12-14T18:05:01.777Z,100.00
2023-12-14T18:08:06.301Z,100.00
2023-12-14T18:11:09.051Z,100.00
2023-12-14T18:14:11.823Z,100.00
2023-12-14T18:17:15.939Z,100.00
2023-12-14T18:20:18.872Z,100.00
2023-12-14T18:23:22.082Z,100.00
2023-12-14T18:26:24.929Z,100.00
2023-12-14T18:29:27.862Z,100.00
2023-12-14T18:32:30.790Z,100.00
2023-12-14T18:35:33.740Z,100.00
2023-12-14T18:38:38.661Z,100.00
2023-12-14T18:41:41.545Z,100.00
2023-12-14T18:44:44.285Z,100.00
2023-12-14T18:47:47.291Z,100.00
2023-12-14T18:50:50.116Z,100.00
2023-12-14T18:53:52.817Z,100.00
2023-12-14T18:56:55.938Z,100.00
2023-12-14T18:59:58.680Z,100.00
2023-12-14T19:03:03.687Z,100.00
2023-12-14T19:06:10.605Z,100.00
2023-12-14T19:09:14.151Z,100.00
2023-12-14T19:12:16.836Z,100.00
2023-12-14T19:15:19.554Z,100.00
2023-12-14T19:18:22.619Z,100.00
2023-12-14T19:21:25.673Z,100.00
2023-12-14T19:24:28.375Z,100.00
2023-12-14T19:27:31.057Z,100.00
2023-12-14T19:30:33.777Z,100.00
2023-12-14T19:33:36.931Z,100.00
2023-12-14T19:36:40.095Z,100.00
2023-12-14T19:39:43.304Z,100.00
2023-12-14T19:42:46.545Z,100.00
2023-12-14T19:45:49.645Z,100.00
2023-12-14T19:48:52.846Z,100.00
2023-12-14T19:51:55.804Z,100.00
2023-12-14T19:54:58.968Z,100.00
2023-12-14T19:58:02.050Z,100.00
2023-12-14T20:01:05.210Z,100.00
2023-12-14T20:04:10.347Z,100.00
2023-12-14T20:07:13.742Z,100.00
2023-12-14T20:10:16.810Z,100.00
2023-12-14T20:13:20.041Z,100.00
2023-12-14T20:16:23.001Z,100.00
2023-12-14T20:19:26.083Z,100.00
2023-12-14T20:22:30.797Z,100.00
2023-12-14T20:25:34.056Z,100.00
2023-12-14T20:28:37.195Z,100.00
2023-12-14T20:31:40.345Z,100.00
2023-12-14T20:34:43.316Z,100.00
2023-12-14T20:37:47.416Z,100.00
2023-12-14T20:40:50.154Z,100.00
2023-12-14T20:43:53.132Z,100.00
2023-12-14T20:46:56.413Z,100.00
2023-12-14T20:49:59.404Z,100.00
2023-12-14T20:53:02.587Z,100.00
2023-12-14T20:56:05.771Z,100.00
2023-12-14T20:59:08.486Z,100.00
2023-12-14T21:02:11.217Z,100.00
2023-12-14T21:05:14.013Z,100.00
2023-12-14T21:08:17.739Z,100.00
2023-12-14T21:11:21.449Z,100.00
2023-12-14T21:14:24.529Z,100.00
2023-12-14T21:17:27.395Z,100.00
2023-12-14T21:20:30.411Z,100.00
2023-12-14T21:23:33.458Z,100.00
2023-12-14T21:26:47.941Z,100.00
2023-12-14T21:29:50.640Z,100.00
2023-12-14T21:32:53.373Z,100.00
2023-12-14T21:35:56.205Z,100.00
2023-12-14T21:38:58.853Z,100.00
2023-12-14T21:42:01.579Z,100.00
2023-12-14T21:45:04.809Z,100.00
2023-12-14T21:48:07.904Z,100.00
2023-12-14T21:51:10.653Z,100.00
2023-12-14T21:54:13.991Z,100.00
2023-12-14T21:57:17.108Z,100.00
2023-12-14T22:00:20.691Z,100.00
2023-12-14T22:03:27.001Z,100.00
2023-12-14T22:06:32.803Z,100.00
2023-12-14T22:09:36.015Z,100.00
2023-12-14T22:12:38.696Z,100.00
2023-12-14T22:15:41.505Z,100.00
2023-12-14T22:18:44.353Z,100.00
2023-12-14T22:21:47.163Z,100.00
2023-12-14T22:24:49.873Z,100.00
2023-12-14T22:27:52.566Z,100.00
2023-12-14T22:30:55.280Z,100.00
2023-12-14T22:33:58.040Z,100.00
2023-12-14T22:37:00.743Z,100.00
2023-12-14T22:40:04.801Z,100.00
2023-12-14T22:43:07.786Z,100.00
2023-12-14T22:46:10.864Z,100.00
2023-12-14T22:49:14.179Z,100.00
2023-12-14T22:52:16.954Z,100.00
2023-12-14T22:55:19.679Z,100.00
2023-12-14T22:58:22.542Z,100.00
2023-12-14T23:01:37.947Z,100.00
2023-12-14T23:04:41.916Z,100.00
2023-12-14T23:07:44.876Z,100.00
2023-12-14T23:10:47.841Z,100.00
2023-12-14T23:13:51.005Z,100.00
2023-12-14T23:16:53.843Z,100.00
2023-12-14T23:19:56.669Z,100.00
2023-12-14T23:23:01.283Z,100.00
2023-12-14T23:26:04.648Z,100.00
2023-12-14T23:29:07.784Z,100.00
2023-12-14T23:32:10.714Z,100.00
2023-12-14T23:35:13.668Z,100.00
2023-12-14T23:38:16.836Z,100.00
2023-12-14T23:41:19.872Z,100.00
2023-12-14T23:44:23.114Z,100.00
2023-12-14T23:47:26.393Z,100.00
2023-12-14T23:50:29.433Z,100.00
2023-12-14T23:53:32.339Z,100.00
2023-12-14T23:56:35.496Z,100.00
2023-12-14T23:59:38.393Z,100.00
